Time;durP1;ratioP1;P1;durP2;ratioP2;P2;SDS_P1;SDS_P2;PMS_P1;PMS_P2;Temp;Humidity;BMP_temperature;BMP_pressure;BME280_temperature;BME280_humidity;BME280_pressure;Samples;Min_cycle;Max_cycle;Signal;HPM_P1;HPM_P2
2022/10/30 00:00:44;;;;;;;31.33;16.33;;;12.50;99.90;;;;;;5074883;28;20131;-31
2022/10/30 00:03:14;;;;;;;29.42;16.20;;;12.50;99.90;;;;;;5074065;28;20036;-29
2022/10/30 00:05:45;;;;;;;33.45;18.08;;;12.50;99.90;;;;;;5075288;28;20092;-29
2022/10/30 00:08:12;;;;;;;34.22;17.20;;;12.50;99.90;;;;;;5075308;28;20049;-29
2022/10/30 00:10:39;;;;;;;35.58;16.70;;;12.50;99.90;;;;;;5073594;28;20055;-29
2022/10/30 00:13:05;;;;;;;44.75;16.92;;;12.50;99.90;;;;;;5073463;28;20478;-30
2022/10/30 00:15:31;;;;;;;33.40;16.00;;;12.50;99.90;;;;;;5074570;28;20131;-30
2022/10/30 00:17:56;;;;;;;30.55;17.70;;;12.50;99.90;;;;;;5074584;28;20051;-29
2022/10/30 00:20:22;;;;;;;27.23;16.17;;;12.40;99.90;;;;;;5074593;28;20482;-29
2022/10/30 00:22:50;;;;;;;29.33;16.25;;;12.40;99.90;;;;;;5073259;28;20044;-29
2022/10/30 00:25:18;;;;;;;31.15;17.48;;;12.40;99.90;;;;;;5074384;28;20047;-30
2022/10/30 00:27:44;;;;;;;29.58;17.05;;;12.40;99.90;;;;;;5074878;28;20387;-30
2022/10/30 00:30:10;;;;;;;29.92;17.02;;;12.50;99.90;;;;;;5074334;28;20078;-29
2022/10/30 00:32:36;;;;;;;31.60;17.05;;;12.40;99.90;;;;;;5074286;28;20040;-30
2022/10/30 00:35:04;;;;;;;30.88;16.55;;;12.30;99.90;;;;;;5074240;28;20097;-29
2022/10/30 00:37:30;;;;;;;27.48;16.85;;;12.30;99.90;;;;;;5072992;28;20075;-29
2022/10/30 00:39:56;;;;;;;28.90;16.45;;;12.30;99.90;;;;;;5056608;28;20490;-30
2022/10/30 00:42:21;;;;;;;38.42;18.50;;;12.30;99.90;;;;;;5074605;28;20048;-29
2022/10/30 00:44:52;;;;;;;36.13;17.35;;;12.20;99.90;;;;;;5074084;28;20127;-31
2022/10/30 00:47:49;;;;;;;29.85;16.90;;;12.20;99.90;;;;;;5074423;28;20443;-29
2022/10/30 00:50:29;;;;;;;32.92;17.13;;;12.20;99.90;;;;;;5070666;28;20101;-30
2022/10/30 00:53:06;;;;;;;35.22;17.50;;;12.20;99.90;;;;;;5074041;28;20047;-29
2022/10/30 00:55:47;;;;;;;31.95;17.95;;;12.20;99.90;;;;;;5074559;28;20040;-29
2022/10/30 00:58:18;;;;;;;34.08;17.73;;;12.20;99.90;;;;;;5073953;28;20127;-29
2022/10/30 01:00:48;;;;;;;39.03;18.02;;;12.20;99.90;;;;;;5073588;28;20056;-30
2022/10/30 01:03:16;;;;;;;37.35;17.35;;;12.20;99.90;;;;;;5074390;28;20431;-29
2022/10/30 01:05:47;;;;;;;36.60;17.10;;;12.20;99.90;;;;;;5073724;28;20044;-29
2022/10/30 01:08:13;;;;;;;35.47;18.63;;;12.20;99.90;;;;;;5073841;28;20131;-29
2022/10/30 01:10:39;;;;;;;30.05;17.60;;;12.10;99.90;;;;;;5039605;28;20187;-29
2022/10/30 01:13:05;;;;;;;35.33;19.17;;;12.10;99.90;;;;;;5056175;28;20079;-29
2022/10/30 01:15:38;;;;;;;29.63;17.10;;;12.10;99.90;;;;;;5072625;28;20044;-29
2022/10/30 01:18:23;;;;;;;32.67;17.77;;;12.10;99.90;;;;;;5074560;28;20049;-29
2022/10/30 01:21:13;;;;;;;41.45;18.70;;;12.10;99.90;;;;;;5072540;28;20059;-30
2022/10/30 01:23:58;;;;;;;38.72;19.23;;;12.20;99.90;;;;;;5073585;28;20044;-29
2022/10/30 01:26:42;;;;;;;41.28;19.33;;;12.10;99.90;;;;;;5074202;28;20052;-29
2022/10/30 01:29:27;;;;;;;41.10;19.13;;;12.20;99.90;;;;;;5072928;28;20055;-29
2022/10/30 01:32:18;;;;;;;30.10;18.48;;;12.10;99.90;;;;;;5073897;28;20059;-30
2022/10/30 01:35:01;;;;;;;31.95;17.30;;;12.10;99.90;;;;;;5073574;28;20049;-30
2022/10/30 01:37:44;;;;;;;38.13;18.55;;;12.20;99.90;;;;;;5072312;28;20048;-29
2022/10/30 01:40:16;;;;;;;31.65;18.08;;;12.10;99.90;;;;;;5074132;28;20125;-29
2022/10/30 01:42:55;;;;;;;34.85;18.80;;;12.10;99.90;;;;;;5073423;28;20055;-29
2022/10/30 01:45:51;;;;;;;37.60;18.80;;;12.20;99.90;;;;;;5073826;28;20402;-29
2022/10/30 01:48:20;;;;;;;33.88;18.25;;;12.10;99.90;;;;;;5056328;28;20415;-29
2022/10/30 01:51:10;;;;;;;33.00;18.73;;;12.20;99.90;;;;;;5073316;28;20053;-30
2022/10/30 01:53:44;;;;;;;37.30;18.88;;;12.10;99.90;;;;;;5073371;28;20044;-29
2022/10/30 01:56:12;;;;;;;32.78;18.10;;;12.10;99.90;;;;;;5073338;28;20060;-29
2022/10/30 01:58:50;;;;;;;32.92;18.08;;;12.20;99.90;;;;;;5073254;28;20174;-29
2022/10/30 02:01:19;;;;;;;38.75;18.58;;;12.20;99.90;;;;;;5073345;28;20051;-29
2022/10/30 02:03:45;;;;;;;36.53;18.90;;;12.20;99.90;;;;;;5055559;28;20575;-31
2022/10/30 02:06:11;;;;;;;30.20;18.05;;;12.10;99.90;;;;;;5071635;28;20049;-30
2022/10/30 02:08:37;;;;;;;31.95;17.55;;;12.20;99.90;;;;;;5055533;28;20049;-29
2022/10/30 02:11:03;;;;;;;37.35;18.08;;;12.20;99.90;;;;;;5071666;28;20040;-30
2022/10/30 02:13:30;;;;;;;30.23;17.38;;;12.20;99.90;;;;;;5073141;28;20094;-30
2022/10/30 02:15:57;;;;;;;35.33;18.17;;;12.20;99.90;;;;;;5073109;28;20123;-29
2022/10/30 02:18:23;;;;;;;31.42;17.98;;;12.30;99.90;;;;;;5073105;28;20051;-29
2022/10/30 02:20:49;;;;;;;31.38;17.58;;;12.30;99.90;;;;;;5071817;28;20052;-30
2022/10/30 02:23:17;;;;;;;34.28;17.88;;;12.30;99.90;;;;;;5071846;28;20040;-30
2022/10/30 02:25:44;;;;;;;30.20;17.10;;;12.40;99.90;;;;;;5072021;28;20091;-29
2022/10/30 02:28:10;;;;;;;35.50;17.92;;;12.40;99.90;;;;;;5076694;28;20207;-29
2022/10/30 02:30:37;;;;;;;32.42;18.48;;;12.30;99.90;;;;;;5076355;28;20045;-29
2022/10/30 02:33:02;;;;;;;33.63;17.23;;;12.30;99.90;;;;;;5076614;28;20115;-29
2022/10/30 02:35:29;;;;;;;30.92;16.83;;;12.30;99.90;;;;;;5076608;28;20509;-29
2022/10/30 02:37:54;;;;;;;39.75;18.15;;;12.30;99.90;;;;;;5076513;28;20076;-29
2022/10/30 02:40:20;;;;;;;33.30;18.45;;;12.20;99.90;;;;;;5076186;28;20045;-29
2022/10/30 02:42:53;;;;;;;36.67;18.55;;;12.10;99.90;;;;;;5076347;28;20036;-29
2022/10/30 02:45:22;;;;;;;29.33;16.10;;;12.20;99.90;;;;;;5076274;28;20135;-29
2022/10/30 02:47:48;;;;;;;35.00;19.40;;;12.10;99.90;;;;;;5077229;28;20049;-30
2022/10/30 02:50:13;;;;;;;32.88;18.25;;;12.00;99.90;;;;;;5058682;28;20505;-29
2022/10/30 02:52:39;;;;;;;29.92;17.90;;;12.00;99.90;;;;;;5076282;28;20040;-30
2022/10/30 02:55:05;;;;;;;38.03;19.50;;;12.00;99.90;;;;;;5076204;28;20449;-29
2022/10/30 02:57:33;;;;;;;34.90;19.55;;;11.90;99.90;;;;;;5075550;28;20084;-29
2022/10/30 03:00:01;;;;;;;38.05;19.13;;;11.90;99.90;;;;;;5076416;28;20048;-30
2022/10/30 03:02:27;;;;;;;39.45;19.73;;;11.90;99.90;;;;;;5075582;28;20463;-29
2022/10/30 03:04:55;;;;;;;33.65;18.70;;;11.90;99.90;;;;;;5076227;28;20127;-29
2022/10/30 03:07:20;;;;;;;36.70;19.73;;;11.90;99.90;;;;;;5058306;28;20053;-29
2022/10/30 03:09:47;;;;;;;34.20;18.45;;;11.90;99.90;;;;;;5074731;28;20043;-29
2022/10/30 03:12:13;;;;;;;35.78;20.90;;;11.80;99.90;;;;;;5076744;28;20079;-28
2022/10/30 03:14:38;;;;;;;38.03;19.60;;;11.90;99.90;;;;;;5075554;28;20445;-28
2022/10/30 03:17:04;;;;;;;38.35;22.40;;;11.80;99.90;;;;;;5075156;28;20048;-28
2022/10/30 03:19:30;;;;;;;33.78;20.25;;;11.80;99.90;;;;;;5075802;28;20418;-29
2022/10/30 03:21:55;;;;;;;35.58;20.33;;;11.80;99.90;;;;;;5076257;28;20482;-28
2022/10/30 03:24:21;;;;;;;40.90;20.00;;;11.70;99.90;;;;;;5074493;28;20120;-28
2022/10/30 03:26:47;;;;;;;38.28;20.27;;;11.80;99.90;;;;;;5074122;28;20048;-28
2022/10/30 03:29:13;;;;;;;37.20;20.35;;;11.70;99.90;;;;;;5076109;28;20049;-28
2022/10/30 03:31:38;;;;;;;41.15;19.98;;;11.70;99.90;;;;;;5074570;28;20045;-27
2022/10/30 03:34:04;;;;;;;41.45;21.05;;;11.60;99.90;;;;;;5075443;28;20040;-28
2022/10/30 03:36:29;;;;;;;38.33;19.98;;;11.70;99.90;;;;;;5075488;28;20151;-28
2022/10/30 03:38:55;;;;;;;41.92;21.73;;;11.80;99.90;;;;;;5074204;28;20489;-28
2022/10/30 03:41:23;;;;;;;37.25;20.35;;;11.70;99.90;;;;;;5075338;28;20041;-28
2022/10/30 03:43:49;;;;;;;40.88;19.92;;;11.70;99.90;;;;;;5074056;28;20082;-28
2022/10/30 03:46:15;;;;;;;37.60;19.55;;;11.70;99.90;;;;;;5073624;28;20479;-28
2022/10/30 03:48:41;;;;;;;40.40;21.33;;;11.80;99.90;;;;;;5075714;28;20088;-28
2022/10/30 03:51:07;;;;;;;40.28;19.92;;;11.70;99.90;;;;;;5074217;28;20037;-28
2022/10/30 03:53:32;;;;;;;35.45;20.58;;;11.80;99.90;;;;;;5075922;28;20451;-28
2022/10/30 03:56:03;;;;;;;39.58;19.80;;;11.80;99.90;;;;;;5074078;28;20051;-28
2022/10/30 03:58:29;;;;;;;49.53;21.63;;;11.70;99.90;;;;;;5074728;28;20505;-28
2022/10/30 04:01:05;;;;;;;43.15;20.02;;;11.70;99.90;;;;;;5074924;28;20083;-28
2022/10/30 04:03:34;;;;;;;37.63;20.30;;;11.70;99.90;;;;;;5075136;28;20040;-28
2022/10/30 04:05:59;;;;;;;40.45;20.83;;;11.60;99.90;;;;;;5075294;28;20044;-28
2022/10/30 04:08:25;;;;;;;38.33;20.20;;;11.60;99.90;;;;;;5075589;28;20045;-27
2022/10/30 04:10:51;;;;;;;43.60;21.67;;;11.60;99.90;;;;;;5074753;28;20479;-28
2022/10/30 04:13:19;;;;;;;40.50;20.65;;;11.60;99.90;;;;;;5074711;28;20040;-28
2022/10/30 04:15:47;;;;;;;38.10;21.98;;;11.50;99.90;;;;;;5073997;28;20048;-29
2022/10/30 04:18:15;;;;;;;43.80;22.13;;;11.60;99.90;;;;;;5056995;28;20449;-29
2022/10/30 04:20:41;;;;;;;41.30;20.67;;;11.60;99.90;;;;;;5074563;28;20048;-28
2022/10/30 04:23:11;;;;;;;41.42;20.60;;;11.60;99.90;;;;;;5073240;28;20127;-28
2022/10/30 04:25:36;;;;;;;49.50;21.40;;;11.60;99.90;;;;;;5074447;28;20555;-28
2022/10/30 04:28:02;;;;;;;35.95;20.42;;;11.60;99.90;;;;;;5074444;28;20048;-28
2022/10/30 04:30:33;;;;;;;41.47;22.95;;;11.70;99.90;;;;;;5073109;28;20048;-27
2022/10/30 04:33:02;;;;;;;40.92;21.80;;;11.70;99.90;;;;;;5075192;28;20106;-28
2022/10/30 04:35:31;;;;;;;39.65;21.02;;;11.70;99.90;;;;;;5074215;28;20398;-28
2022/10/30 04:37:59;;;;;;;42.15;21.80;;;11.70;99.90;;;;;;5074228;28;20048;-28
2022/10/30 04:40:27;;;;;;;42.30;22.23;;;11.70;99.90;;;;;;5074136;28;20102;-28
2022/10/30 04:42:54;;;;;;;37.60;20.60;;;11.70;99.90;;;;;;5073310;28;20123;-28
2022/10/30 04:45:20;;;;;;;50.17;24.10;;;11.70;99.90;;;;;;5073935;28;20375;-27
2022/10/30 04:47:46;;;;;;;38.83;21.92;;;11.60;99.90;;;;;;5074067;28;20127;-28
2022/10/30 04:50:15;;;;;;;43.80;21.70;;;11.60;99.90;;;;;;5073674;28;20127;-28
2022/10/30 04:52:41;;;;;;;39.97;22.63;;;11.60;99.90;;;;;;5073978;28;20090;-28
2022/10/30 04:55:08;;;;;;;46.65;23.83;;;11.50;99.90;;;;;;5073975;28;20437;-28
2022/10/30 04:57:35;;;;;;;50.20;23.63;;;11.50;99.90;;;;;;5073935;28;20045;-27
2022/10/30 05:00:05;;;;;;;47.70;24.67;;;11.50;99.90;;;;;;5074445;28;20049;-27
2022/10/30 05:02:33;;;;;;;56.08;24.13;;;11.60;99.90;;;;;;5073741;28;20139;-26
2022/10/30 05:04:58;;;;;;;46.00;24.77;;;11.60;99.90;;;;;;5074101;28;20380;-27
2022/10/30 05:07:24;;;;;;;54.72;25.35;;;11.60;99.90;;;;;;5073824;28;20055;-26
2022/10/30 05:09:50;;;;;;;43.15;22.48;;;11.60;99.90;;;;;;5073804;28;20055;-26
2022/10/30 05:12:17;;;;;;;49.13;24.13;;;11.50;99.90;;;;;;5072538;28;20041;-27
2022/10/30 05:14:43;;;;;;;42.78;23.58;;;11.60;99.90;;;;;;5072454;28;20512;-26
2022/10/30 05:17:09;;;;;;;45.55;26.02;;;11.60;99.90;;;;;;5073721;28;20127;-27
2022/10/30 05:19:34;;;;;;;52.05;25.95;;;11.50;99.90;;;;;;5073612;28;20048;-27
2022/10/30 05:22:00;;;;;;;51.72;25.33;;;11.40;99.90;;;;;;5073599;28;20105;-27
2022/10/30 05:24:26;;;;;;;54.50;27.95;;;11.60;99.90;;;;;;5073644;28;20099;-27
2022/10/30 05:26:51;;;;;;;46.13;23.58;;;11.50;99.90;;;;;;5072978;28;20045;-27
2022/10/30 05:29:17;;;;;;;52.20;25.08;;;11.50;99.90;;;;;;5073849;28;20044;-26
2022/10/30 05:31:43;;;;;;;53.70;26.48;;;11.50;99.90;;;;;;5074131;28;20037;-26
2022/10/30 05:34:09;;;;;;;44.65;24.42;;;11.50;99.90;;;;;;5072595;28;20115;-26
2022/10/30 05:36:34;;;;;;;55.30;25.67;;;11.50;99.90;;;;;;5073481;28;20040;-27
2022/10/30 05:39:01;;;;;;;58.88;27.08;;;11.40;99.90;;;;;;5073454;28;20044;-26
2022/10/30 05:41:28;;;;;;;52.70;26.95;;;11.40;99.90;;;;;;5072540;28;20080;-26
2022/10/30 05:43:53;;;;;;;53.30;25.48;;;11.40;99.90;;;;;;5072788;28;20056;-26
2022/10/30 05:46:19;;;;;;;56.92;26.20;;;11.40;99.90;;;;;;5074008;28;20053;-27
2022/10/30 05:48:45;;;;;;;62.13;28.90;;;11.40;99.90;;;;;;5073934;28;20053;-27
2022/10/30 05:51:10;;;;;;;58.35;27.92;;;11.30;99.90;;;;;;5039133;28;20083;-26
2022/10/30 05:53:36;;;;;;;50.65;26.50;;;11.20;99.90;;;;;;5073616;28;20052;-27
2022/10/30 05:56:02;;;;;;;57.67;27.95;;;11.30;99.90;;;;;;5072138;28;20494;-27
2022/10/30 05:58:28;;;;;;;61.13;27.35;;;11.20;99.90;;;;;;5055424;28;20053;-26
2022/10/30 06:00:53;;;;;;;60.30;30.17;;;11.10;99.90;;;;;;5072758;28;20048;-26
2022/10/30 06:03:19;;;;;;;57.10;26.13;;;11.10;99.90;;;;;;5075960;28;20079;-27
2022/10/30 06:05:46;;;;;;;59.58;29.50;;;11.10;99.90;;;;;;5077345;28;20502;-26
2022/10/30 06:08:12;;;;;;;60.50;27.30;;;11.00;99.90;;;;;;5077365;28;20048;-27
2022/10/30 06:10:38;;;;;;;58.92;28.40;;;11.00;99.90;;;;;;5077312;28;20046;-27
2022/10/30 06:13:05;;;;;;;55.38;27.80;;;10.90;99.90;;;;;;5076644;28;20385;-26
2022/10/30 06:15:32;;;;;;;56.03;26.15;;;10.80;99.90;;;;;;5077510;28;20127;-26
2022/10/30 06:17:58;;;;;;;60.50;28.35;;;10.80;99.90;;;;;;5076934;28;20139;-26
2022/10/30 06:20:27;;;;;;;53.03;27.20;;;10.80;99.90;;;;;;5058969;28;20058;-26
2022/10/30 06:23:01;;;;;;;51.17;25.80;;;10.70;99.90;;;;;;5077286;28;20044;-26
2022/10/30 06:25:30;;;;;;;59.08;26.60;;;10.70;99.90;;;;;;5076795;28;20490;-26
2022/10/30 06:27:57;;;;;;;66.22;30.85;;;10.80;99.90;;;;;;5076715;28;20060;-26
2022/10/30 06:30:24;;;;;;;54.47;26.88;;;10.70;99.90;;;;;;5075726;28;20394;-26
2022/10/30 06:32:54;;;;;;;64.85;29.85;;;10.60;99.90;;;;;;5075371;28;20097;-26
2022/10/30 06:35:20;;;;;;;66.57;30.02;;;10.70;99.90;;;;;;5076195;28;20391;-26
2022/10/30 06:37:48;;;;;;;68.60;31.35;;;10.70;99.90;;;;;;5076566;28;20044;-27
2022/10/30 06:40:15;;;;;;;79.80;32.67;;;10.80;99.90;;;;;;5058784;28;20052;-26
2022/10/30 06:42:45;;;;;;;75.28;32.67;;;10.80;99.90;;;;;;5076406;28;20496;-26
2022/10/30 06:45:12;;;;;;;69.45;31.52;;;10.80;99.90;;;;;;5076379;28;20136;-27
2022/10/30 06:47:38;;;;;;;63.75;30.77;;;10.90;99.90;;;;;;5076195;28;20056;-27
2022/10/30 06:50:06;;;;;;;62.55;30.98;;;10.80;99.90;;;;;;5076307;28;20052;-26
2022/10/30 06:52:32;;;;;;;59.47;28.70;;;10.80;99.90;;;;;;5075186;28;20431;-26
2022/10/30 06:54:58;;;;;;;66.25;30.00;;;10.90;99.90;;;;;;5076197;28;20538;-26
2022/10/30 06:57:23;;;;;;;57.90;29.48;;;10.90;99.90;;;;;;5076185;28;20140;-26
2022/10/30 06:59:49;;;;;;;57.35;29.52;;;10.90;99.90;;;;;;5076186;28;20075;-26
2022/10/30 07:02:15;;;;;;;62.05;28.48;;;10.80;99.90;;;;;;5075887;28;20055;-26
2022/10/30 07:04:41;;;;;;;66.05;30.30;;;10.80;99.90;;;;;;5076815;28;20044;-26
2022/10/30 07:07:07;;;;;;;72.10;30.10;;;10.90;99.90;;;;;;5076595;28;20641;-27
2022/10/30 07:09:32;;;;;;;70.50;29.88;;;10.90;99.90;;;;;;5075038;28;20071;-27
2022/10/30 07:11:58;;;;;;;62.80;30.02;;;11.00;99.90;;;;;;5076212;28;20117;-26
2022/10/30 07:14:24;;;;;;;60.97;28.05;;;11.00;99.90;;;;;;5076421;28;20048;-26
2022/10/30 07:16:50;;;;;;;63.72;30.58;;;11.10;99.90;;;;;;5075683;28;20155;-26
2022/10/30 07:19:15;;;;;;;59.63;29.45;;;11.10;99.90;;;;;;5074828;28;20067;-27
2022/10/30 07:21:41;;;;;;;54.33;29.33;;;11.20;99.90;;;;;;5075741;28;20052;-26
2022/10/30 07:24:07;;;;;;;63.00;29.20;;;11.10;99.90;;;;;;5075664;28;20048;-27
2022/10/30 07:26:36;;;;;;;59.95;30.02;;;11.20;99.90;;;;;;5076249;28;20133;-26
2022/10/30 07:29:05;;;;;;;64.32;28.85;;;11.20;99.90;;;;;;5075898;28;20044;-26
2022/10/30 07:31:30;;;;;;;50.30;25.65;;;11.20;99.90;;;;;;5074566;28;20044;-26
2022/10/30 07:33:56;;;;;;;62.85;28.13;;;11.40;99.90;;;;;;5075964;28;20037;-26
2022/10/30 07:36:22;;;;;;;50.20;27.50;;;11.50;99.90;;;;;;5075437;28;20048;-27
2022/10/30 07:38:49;;;;;;;56.50;29.10;;;11.70;99.90;;;;;;5075405;28;20482;-26
2022/10/30 07:41:17;;;;;;;53.40;26.92;;;11.70;99.90;;;;;;5074352;28;20497;-27
2022/10/30 07:43:43;;;;;;;52.50;28.27;;;11.90;99.90;;;;;;5075247;28;20129;-27
2022/10/30 07:46:09;;;;;;;57.85;28.58;;;11.80;99.90;;;;;;5074567;28;20052;-28
2022/10/30 07:48:35;;;;;;;57.92;28.40;;;12.00;99.90;;;;;;5075806;28;20055;-27
2022/10/30 07:51:00;;;;;;;60.88;28.40;;;12.10;99.90;;;;;;5075734;28;20044;-26
2022/10/30 07:53:26;;;;;;;55.03;29.52;;;12.10;99.90;;;;;;5074151;28;20052;-26
2022/10/30 07:55:52;;;;;;;57.55;27.85;;;12.30;99.90;;;;;;5075005;28;20044;-26
2022/10/30 07:58:18;;;;;;;50.50;28.77;;;12.20;99.90;;;;;;5073744;28;20049;-27
2022/10/30 08:00:43;;;;;;;58.58;27.55;;;12.20;99.90;;;;;;5074971;28;20055;-27
2022/10/30 08:03:11;;;;;;;52.72;25.80;;;12.30;99.90;;;;;;5073670;28;20055;-26
2022/10/30 08:05:36;;;;;;;49.47;24.83;;;12.40;99.90;;;;;;5074786;28;20059;-26
2022/10/30 08:08:02;;;;;;;40.60;24.15;;;12.60;99.90;;;;;;5075421;28;20041;-27
2022/10/30 08:10:28;;;;;;;44.30;23.42;;;12.60;99.90;;;;;;5075323;28;20071;-27
2022/10/30 08:12:54;;;;;;;41.97;25.83;;;12.80;99.90;;;;;;5074702;28;20166;-27
2022/10/30 08:15:20;;;;;;;40.97;22.70;;;12.90;99.90;;;;;;5073527;28;20040;-27
2022/10/30 08:17:47;;;;;;;37.60;22.48;;;13.00;99.90;;;;;;5074610;28;20044;-27
2022/10/30 08:20:15;;;;;;;35.88;20.05;;;13.20;99.90;;;;;;5074255;28;20484;-27
2022/10/30 08:22:51;;;;;;;41.63;20.63;;;13.20;99.90;;;;;;5073503;28;20044;-27
2022/10/30 08:25:20;;;;;;;33.85;20.73;;;13.30;99.90;;;;;;5073899;28;20040;-27
2022/10/30 08:28:04;;;;;;;36.33;19.13;;;13.40;99.90;;;;;;5073727;28;20048;-27
2022/10/30 08:30:34;;;;;;;32.08;17.08;;;13.50;99.90;;;;;;5075020;28;20044;-27
2022/10/30 08:33:02;;;;;;;34.63;19.65;;;13.60;99.90;;;;;;5074349;28;20080;-27
2022/10/30 08:35:28;;;;;;;30.85;18.45;;;13.70;99.90;;;;;;5056990;28;20048;-27
2022/10/30 08:37:55;;;;;;;29.88;17.88;;;13.80;99.90;;;;;;5073044;28;20547;-27
2022/10/30 08:40:22;;;;;;;32.63;17.15;;;13.90;99.90;;;;;;5073771;28;20044;-28
2022/10/30 08:42:55;;;;;;;34.33;16.77;;;14.00;99.90;;;;;;5074093;28;20131;-27
2022/10/30 08:45:23;;;;;;;30.92;15.35;;;14.10;99.90;;;;;;5074808;28;20048;-27
2022/10/30 08:47:59;;;;;;;37.80;17.00;;;14.20;99.90;;;;;;5072822;28;20052;-27
2022/10/30 08:50:25;;;;;;;29.63;16.58;;;14.30;99.90;;;;;;5074097;28;20545;-28
2022/10/30 08:52:50;;;;;;;29.02;16.15;;;14.40;99.90;;;;;;5074865;28;20045;-27
2022/10/30 08:55:16;;;;;;;31.48;15.45;;;14.50;99.90;;;;;;5074017;28;20085;-27
2022/10/30 08:57:42;;;;;;;25.15;15.13;;;14.60;99.90;;;;;;5073017;28;20040;-27
2022/10/30 09:00:08;;;;;;;33.10;15.77;;;14.70;99.90;;;;;;5074437;28;20045;-28
2022/10/30 09:02:38;;;;;;;27.52;15.55;;;14.80;99.90;;;;;;5074692;28;20552;-27
2022/10/30 09:05:08;;;;;;;28.42;15.40;;;14.90;99.90;;;;;;5074309;28;20048;-28
2022/10/30 09:07:34;;;;;;;24.92;15.38;;;15.00;99.90;;;;;;5073905;28;20055;-28
2022/10/30 09:10:00;;;;;;;24.02;13.88;;;15.10;99.90;;;;;;5072653;28;20137;-28
2022/10/30 09:12:25;;;;;;;24.13;13.57;;;15.20;99.90;;;;;;5072610;28;20076;-28
2022/10/30 09:14:51;;;;;;;29.08;14.15;;;15.30;99.90;;;;;;5074007;28;20131;-28
2022/10/30 09:17:17;;;;;;;25.83;13.10;;;15.50;99.90;;;;;;5073995;28;20544;-28
2022/10/30 09:19:42;;;;;;;29.95;14.05;;;15.60;99.90;;;;;;5073755;28;20528;-28
2022/10/30 09:22:08;;;;;;;22.63;11.88;;;15.70;99.90;;;;;;5072450;28;20053;-28
2022/10/30 09:24:34;;;;;;;28.83;14.27;;;15.90;99.90;;;;;;5072472;28;20048;-28
2022/10/30 09:27:00;;;;;;;23.75;13.45;;;16.00;99.90;;;;;;5073621;28;20044;-28
2022/10/30 09:29:25;;;;;;;20.88;11.02;;;16.10;99.90;;;;;;5073627;28;20045;-29
2022/10/30 09:31:51;;;;;;;25.38;12.18;;;16.20;99.90;;;;;;5055703;28;20124;-28
2022/10/30 09:34:17;;;;;;;21.92;11.65;;;16.40;99.90;;;;;;5073231;28;20106;-28
2022/10/30 09:36:45;;;;;;;26.33;12.65;;;16.60;99.90;;;;;;5077122;28;20044;-28
2022/10/30 09:39:11;;;;;;;17.98;11.93;;;16.80;99.90;;;;;;5060275;28;20080;-29
2022/10/30 09:42:04;;;;;;;24.45;13.05;;;16.90;99.90;;;;;;5076184;28;20551;-28
2022/10/30 09:44:55;;;;;;;20.52;11.82;;;17.00;99.90;;;;;;5076374;28;20383;-28
2022/10/30 09:47:34;;;;;;;25.85;11.93;;;17.10;99.90;;;;;;5076753;28;20056;-28
2022/10/30 09:50:18;;;;;;;21.17;11.90;;;17.00;99.90;;;;;;5078087;28;20429;-28
2022/10/30 09:53:03;;;;;;;23.67;12.65;;;17.10;99.90;;;;;;5077758;28;20055;-29
2022/10/30 09:55:47;;;;;;;22.83;10.88;;;17.10;99.90;;;;;;5077965;28;20059;-28
2022/10/30 09:58:40;;;;;;;24.50;12.25;;;17.20;99.90;;;;;;5078012;28;20381;-28
2022/10/30 10:01:24;;;;;;;27.17;12.57;;;17.20;99.90;;;;;;5076644;28;20497;-28
2022/10/30 10:04:11;;;;;;;28.52;12.13;;;17.20;99.90;;;;;;5075779;28;20048;-28
2022/10/30 10:06:41;;;;;;;23.98;11.82;;;17.20;99.90;;;;;;5076101;28;20171;-28
2022/10/30 10:09:19;;;;;;;21.60;11.98;;;17.20;99.90;;;;;;5060532;28;20121;-28
2022/10/30 10:11:59;;;;;;;24.02;12.52;;;17.30;99.90;;;;;;5076949;28;20060;-28
2022/10/30 10:14:39;;;;;;;21.90;12.10;;;17.40;99.90;;;;;;5077072;28;20047;-28
2022/10/30 10:17:12;;;;;;;23.05;11.68;;;17.40;99.90;;;;;;5076996;28;20055;-30
2022/10/30 10:19:46;;;;;;;24.30;12.07;;;17.50;99.90;;;;;;5077465;28;20041;-28
2022/10/30 10:22:28;;;;;;;19.23;10.85;;;17.50;99.90;;;;;;5076314;28;20056;-28
2022/10/30 10:24:55;;;;;;;19.97;11.23;;;17.70;99.90;;;;;;5076822;28;20056;-28
2022/10/30 10:27:46;;;;;;;22.83;10.52;;;17.80;99.90;;;;;;5077733;28;20318;-29
2022/10/30 10:30:19;;;;;;;22.30;10.25;;;17.90;99.90;;;;;;5077010;28;20048;-28
2022/10/30 10:33:06;;;;;;;19.50;9.63;;;18.00;99.90;;;;;;5077541;28;20364;-28
2022/10/30 10:35:43;;;;;;;22.95;10.68;;;18.00;99.90;;;;;;5077485;28;20071;-28
2022/10/30 10:38:42;;;;;;;22.52;10.95;;;18.20;99.90;;;;;;5076599;28;20048;-28
2022/10/30 10:41:07;;;;;;;21.20;11.20;;;18.30;99.90;;;;;;5076526;28;20127;-28
2022/10/30 10:44:10;;;;;;;24.55;11.25;;;18.50;99.90;;;;;;5075148;28;20533;-28
2022/10/30 10:46:57;;;;;;;21.23;10.77;;;18.60;99.90;;;;;;5074842;28;20052;-28
2022/10/30 10:50:09;;;;;;;19.52;10.55;;;18.70;99.90;;;;;;5077198;28;20044;-28
2022/10/30 10:53:04;;;;;;;20.63;10.17;;;18.70;99.90;;;;;;5021004;28;20053;-28
2022/10/30 10:55:41;;;;;;;20.95;10.70;;;18.80;99.90;;;;;;5075665;28;20056;-28
2022/10/30 10:58:35;;;;;;;21.70;10.02;;;18.90;99.90;;;;;;5076794;28;20044;-29
2022/10/30 11:01:01;;;;;;;20.50;9.88;;;18.90;99.90;;;;;;5075816;28;20379;-28
2022/10/30 11:03:45;;;;;;;19.30;9.95;;;18.80;99.90;;;;;;5076564;28;20048;-29
2022/10/30 11:06:25;;;;;;;19.70;10.50;;;18.70;99.90;;;;;;5076173;28;20040;-28
2022/10/30 11:08:57;;;;;;;23.90;10.73;;;18.70;99.90;;;;;;5076666;28;20052;-28
2022/10/30 11:11:22;;;;;;;22.60;10.60;;;18.70;99.90;;;;;;5074757;28;20181;-28
2022/10/30 11:13:48;;;;;;;21.70;10.73;;;18.80;99.90;;;;;;5076767;28;20082;-29
2022/10/30 11:16:44;;;;;;;21.52;11.00;;;18.90;99.90;;;;;;5076100;28;20509;-28
2022/10/30 11:19:09;;;;;;;21.25;11.23;;;19.00;99.90;;;;;;5076999;28;20051;-29
2022/10/30 11:21:41;;;;;;;15.82;9.90;;;19.10;99.90;;;;;;5075452;28;20441;-28
2022/10/30 11:24:26;;;;;;;19.13;9.88;;;19.20;99.90;;;;;;5076533;28;20040;-28
2022/10/30 11:26:55;;;;;;;20.55;10.43;;;19.30;99.90;;;;;;5075690;28;20044;-28
2022/10/30 11:29:28;;;;;;;20.30;9.98;;;19.20;99.90;;;;;;5074626;28;20097;-28
2022/10/30 11:32:04;;;;;;;18.77;10.15;;;19.30;99.90;;;;;;5075700;28;20047;-28
2022/10/30 11:34:37;;;;;;;17.23;9.48;;;19.40;99.90;;;;;;5074329;28;20063;-28
2022/10/30 11:37:04;;;;;;;21.98;9.43;;;19.40;99.90;;;;;;5075167;28;20401;-28
2022/10/30 11:39:34;;;;;;;26.38;9.73;;;19.50;99.90;;;;;;5075102;28;20483;-28
2022/10/30 11:42:16;;;;;;;22.85;9.30;;;19.60;99.90;;;;;;5075370;28;20060;-28
2022/10/30 11:44:48;;;;;;;20.73;9.13;;;19.70;99.90;;;;;;5074765;28;20048;-28
2022/10/30 11:47:24;;;;;;;19.00;10.30;;;19.90;99.90;;;;;;5074878;28;20056;-29
2022/10/30 11:49:56;;;;;;;18.38;9.25;;;20.00;99.90;;;;;;5075854;28;20409;-28
2022/10/30 11:52:24;;;;;;;21.98;8.45;;;20.20;99.90;;;;;;5074245;28;20056;-29
2022/10/30 11:54:55;;;;;;;20.98;9.82;;;20.40;99.90;;;;;;5075151;28;20052;-28
2022/10/30 11:57:27;;;;;;;21.42;8.60;;;20.50;99.90;;;;;;5075160;28;20056;-29
2022/10/30 11:59:54;;;;;;;14.75;8.32;;;20.60;99.90;;;;;;5073942;28;20052;-28
2022/10/30 12:02:26;;;;;;;19.52;8.32;;;20.50;99.90;;;;;;5075421;28;20416;-29
2022/10/30 12:04:56;;;;;;;15.98;9.00;;;20.50;99.90;;;;;;5057182;28;20053;-28
2022/10/30 12:07:22;;;;;;;21.70;8.82;;;20.40;99.90;;;;;;5074502;28;20371;-28
2022/10/30 12:09:47;;;;;;;23.30;9.57;;;20.50;99.90;;;;;;5056884;28;20085;-28
2022/10/30 12:12:27;;;;;;;17.42;8.38;;;21.00;1.00;;;;;;5074739;28;20049;-29
2022/10/30 12:14:54;;;;;;;21.45;9.20;;;21.30;14.50;;;;;;5074437;28;20406;-29
2022/10/30 12:17:21;;;;;;;18.27;8.10;;;21.60;1.00;;;;;;5074662;28;20036;-28
2022/10/30 12:19:54;;;;;;;20.45;7.57;;;21.90;99.90;;;;;;5073225;28;20513;-29
2022/10/30 12:22:33;;;;;;;16.55;7.70;;;21.70;99.90;;;;;;5074531;28;20040;-29
2022/10/30 12:25:13;;;;;;;16.20;7.93;;;21.50;47.10;;;;;;5073351;28;20131;-30
2022/10/30 12:27:39;;;;;;;16.35;7.15;;;21.40;1.00;;;;;;5074502;28;20071;-29
2022/10/30 12:30:18;;;;;;;17.35;6.75;;;21.50;99.90;;;;;;5074414;28;20045;-28
2022/10/30 12:32:52;;;;;;;18.23;8.20;;;21.40;99.90;;;;;;5075191;28;20050;-28
2022/10/30 12:35:54;;;;;;;12.48;7.22;;;21.40;1.00;;;;;;5074324;28;20127;-28
2022/10/30 12:38:32;;;;;;;14.63;7.22;;;21.60;1.00;;;;;;5074098;28;20049;-28
2022/10/30 12:41:26;;;;;;;14.40;7.22;;;21.70;99.90;;;;;;5074008;28;20048;-28
2022/10/30 12:44:00;;;;;;;15.05;7.25;;;21.50;99.90;;;;;;5074691;28;20528;-28